Terminal Aerodrome Forecast
Issued by NWS Sterling, VA

Current Version | Previous Version | Text Only | Print | Product List | Glossary Off
Versions: 1 2 3 4 5 6 7 8 9 10 11 12 13 14 15 16 17 18 19 20 21 22 23 24 25 26 27 28

000
FTUS41 KLWX 221501 AAA
TAFDCA
TAF AMD
KDCA 221501Z 2215/2312 05006KT P6SM SCT006 OVC008
     FM222100 06007KT 5SM -RADZ BKN008 OVC015
     FM222300 07010G18KT 5SM -RA BKN008 OVC015
     FM230600 07015G25KT 5SM -RA BKN008 OVC015
     FM230900 06019G34KT 5SM -RA BKN008 OVC015=

USA.gov is the U.S. government's official web portal to all federal, state and local government web resources and services.